Aviation Digital Data Service (ADDS)

Output produced by METARs form (2320 UTC 24 May 2018)
found at http://aviationweather.gov/adds/metars/
 
KEKN 241721Z 2417/2518 09005KT P6SM FEW035 
     FM250200 15004KT P6SM FEW250 
     FM251400 21005KT P6SM FEW250